Terminal Aerodrome Forecast
Issued by NWS Tampa Bay Area, FL

Home | Current Version | Previous Version | Text Only | Print | Product List | Glossary On
Versions: 1 2 3 4 5 6 7 8 9 10 11 12 13 14 15 16 17 18 19 20 21 22 23 24
000
FTUS42 KTBW 191130
TAFFMY
TAF
KFMY 191130Z 1912/2012 17012KT P6SM SCT035 SCT080
     FM191400 20017G26KT P6SM SCT020 BKN050 OVC250
      TEMPO 1916/1919 4SM SHRA BKN020
     FM191900 23025G35KT 6SM SHRA VCTS SCT010CB OVC030
      TEMPO 1920/1924 VRB32G40KT 2SM +TSRA BKN010CB
     FM200000 26023G30KT P6SM VCTS SCT010CB BKN020
     FM200200 26014G24KT P6SM VCSH SCT015 BKN035
     FM200400 27012G20KT P6SM SCT025 BKN050=

USA.gov is the U.S. government's official web portal to all federal, state and local government web resources and services.